»·PEaware :: N800DW KMMU-CYQX

N800DW :: KMMU-CYQX

FLIGHT INFORMATION

Flight Status: Arrived
Operator: Privately registered:
United States
More flights under this callsign
Pilot: Scott L. (17677)
Aircraft: Unknown
(EPIC)
More flights by this aircraft type
Origin: KMMU Morristown Mun
United States
Destination: CYQX Gander Intl
Canada
More flights between these airports :: More routes between these airports
Route: DCT DBABE Q406 BAF Q480 ENE Q822 SILRO DCT
File this flight plan on PilotEdge
Remarks:
Altitude:
(Current/Filed)
31,000ft
Speed:
(Current/Filed)
250kts
Departed: 11-Feb-18 07:33 AM
Arrived: 11-Feb-18 10:39 AM
Distance/Time
Traveled:
971nm/3:05
Distance/Time
To Go:
Arrived

Flight Plot

Page will automatically refresh every two minutes.

Flight plan parsing failed; only flown route is shown


Map Options




Map Legend


Flown Route
Filed Route
Departure Airport
Arrival Airport
Navaid (VOR, NDB)
Fix

Horizontal Profiles

Position Reports

Time Latitude Longitude Heading Altitude Ground
Speed
11-Feb-18 07:39 40.799422 -74.413260 35 235ft 133kts
11-Feb-18 07:40 40.842030 -74.374170 34 1890ft 243kts
11-Feb-18 07:41 40.900270 -74.320349 33 3386ft 267kts
11-Feb-18 07:42 40.960996 -74.264104 31 4858ft 272kts
11-Feb-18 07:43 41.022890 -74.206722 30 6325ft 278kts
11-Feb-18 07:44 41.085736 -74.148335 30 7784ft 284kts
11-Feb-18 07:45 41.145283 -74.088878 41 9177ft 294kts
11-Feb-18 07:46 41.201071 -74.008854 43 10659ft 302kts
11-Feb-18 07:47 41.257334 -73.926315 44 12137ft 308kts
11-Feb-18 07:48 41.314251 -73.842244 44 13617ft 311kts
11-Feb-18 07:49 41.371030 -73.757117 44 15098ft 313kts
11-Feb-18 07:50 41.427815 -73.670721 44 16591ft 314kts
11-Feb-18 07:51 41.484596 -73.584038 44 18093ft 314kts
11-Feb-18 07:52 41.541256 -73.497291 43 19604ft 313kts
11-Feb-18 07:53 41.597553 -73.410848 43 21120ft 312kts
11-Feb-18 07:54 41.646879 -73.334921 43 22450ft 310kts
11-Feb-18 07:55 41.707314 -73.277107 22 23780ft 296kts
11-Feb-18 07:56 41.775627 -73.219428 20 25239ft 293kts
11-Feb-18 07:57 41.843322 -73.162613 20 26709ft 288kts
11-Feb-18 07:58 41.909212 -73.107213 18 28177ft 281kts
11-Feb-18 07:59 41.969501 -73.042912 41 29650ft 288kts
11-Feb-18 08:00 42.018491 -72.961388 42 31057ft 282kts
11-Feb-18 08:01 42.071210 -72.871864 44 31112ft 330kts
11-Feb-18 08:02 42.127229 -72.776026 45 31102ft 354kts
11-Feb-18 08:03 42.188547 -72.673835 43 31102ft 364kts
11-Feb-18 08:04 42.253104 -72.569666 43 31100ft 370kts
11-Feb-18 08:05 42.318319 -72.464211 43 31098ft 373kts
11-Feb-18 08:06 42.384297 -72.357123 43 31107ft 375kts
11-Feb-18 08:07 42.447426 -72.254314 44 31102ft 374kts
11-Feb-18 08:08 42.512741 -72.147570 44 31091ft 372kts
11-Feb-18 08:09 42.577051 -72.042071 44 31120ft 364kts
11-Feb-18 08:10 42.640685 -71.937361 44 31119ft 362kts
11-Feb-18 08:11 42.703700 -71.833274 44 31123ft 361kts
11-Feb-18 08:12 42.766822 -71.728638 44 31128ft 361kts
11-Feb-18 08:13 42.829901 -71.623696 44 31129ft 361kts
11-Feb-18 08:14 42.892650 -71.518932 44 31136ft 362kts
11-Feb-18 08:15 42.955554 -71.413504 43 31141ft 366kts
11-Feb-18 08:16 43.018927 -71.306988 44 31126ft 371kts
11-Feb-18 08:17 43.083749 -71.197599 43 31132ft 374kts
11-Feb-18 08:18 43.145259 -71.093394 43 31131ft 375kts
11-Feb-18 08:19 43.209832 -70.983623 43 31139ft 375kts
11-Feb-18 08:20 43.274353 -70.873517 43 31141ft 375kts
11-Feb-18 08:21 43.338712 -70.763277 43 31153ft 373kts
11-Feb-18 08:22 43.402704 -70.653276 43 31160ft 373kts
11-Feb-18 08:23 43.451687 -70.527303 64 31164ft 382kts
11-Feb-18 08:24 43.492416 -70.393837 64 31177ft 383kts
11-Feb-18 08:25 43.532660 -70.260335 65 31168ft 381kts
11-Feb-18 08:26 43.572639 -70.127037 65 31171ft 380kts
11-Feb-18 08:27 43.612595 -69.993075 65 31171ft 380kts
11-Feb-18 08:28 43.652417 -69.858892 65 31169ft 381kts
11-Feb-18 08:29 43.692102 -69.724442 65 31170ft 382kts
11-Feb-18 08:30 43.731575 -69.589069 67 31173ft 383kts
11-Feb-18 08:30 43.763367 -69.475163 67 31174ft 383kts
11-Feb-18 08:32 43.806491 -69.319451 68 31156ft 384kts
11-Feb-18 08:33 43.844102 -69.182790 68 31154ft 382kts
11-Feb-18 08:33 43.875307 -69.068811 68 31156ft 381kts
11-Feb-18 08:35 43.918584 -68.909796 66 31159ft 380kts
11-Feb-18 08:35 43.949119 -68.797141 66 31179ft 378kts
11-Feb-18 08:36 43.985615 -68.661731 67 31182ft 377kts
11-Feb-18 08:37 44.021994 -68.525952 66 31185ft 377kts
11-Feb-18 08:38 44.058112 -68.390389 66 31187ft 378kts
11-Feb-18 08:39 44.092827 -68.259266 67 31172ft 376kts
11-Feb-18 08:40 44.127518 -68.127620 68 31167ft 374kts
11-Feb-18 08:41 44.162978 -67.992218 67 31170ft 373kts
11-Feb-18 08:42 44.198214 -67.856951 67 31173ft 373kts
11-Feb-18 08:43 44.233116 -67.722222 68 31176ft 374kts
11-Feb-18 08:44 44.268221 -67.585856 67 31178ft 375kts
11-Feb-18 08:45 44.303093 -67.449724 67 31181ft 375kts
11-Feb-18 08:46 44.337326 -67.315203 69 31168ft 376kts
11-Feb-18 08:47 44.371836 -67.178721 68 31166ft 374kts
11-Feb-18 08:49 44.406184 -67.042158 68 31124ft 374kts
11-Feb-18 08:50 44.448725 -66.911151 57 31091ft 370kts
11-Feb-18 08:51 44.494253 -66.783469 57 31094ft 369kts
11-Feb-18 08:52 44.539761 -66.655536 57 31101ft 369kts
11-Feb-18 08:53 44.585044 -66.527539 57 31128ft 369kts
11-Feb-18 08:54 44.630098 -66.399643 57 31159ft 369kts
11-Feb-18 08:55 44.674841 -66.272086 58 31150ft 368kts
11-Feb-18 08:56 44.719386 -66.144404 58 31153ft 367kts
11-Feb-18 08:57 44.764326 -66.015011 58 31155ft 367kts
11-Feb-18 08:58 44.808717 -65.886557 58 31158ft 368kts
11-Feb-18 08:59 44.852715 -65.758649 58 31160ft 368kts
11-Feb-18 09:00 44.897595 -65.627595 58 31159ft 369kts
11-Feb-18 09:01 44.941880 -65.497556 58 31162ft 370kts
11-Feb-18 09:02 44.986278 -65.366599 58 31157ft 372kts
11-Feb-18 09:03 45.030108 -65.236669 59 31134ft 374kts
11-Feb-18 09:04 45.074505 -65.104409 59 31138ft 377kts
11-Feb-18 09:05 45.118279 -64.973310 59 31134ft 382kts
11-Feb-18 09:06 45.163411 -64.837431 58 31138ft 384kts
11-Feb-18 09:07 45.208514 -64.701131 58 31141ft 385kts
11-Feb-18 09:08 45.253552 -64.564168 58 31144ft 386kts
11-Feb-18 09:09 45.298548 -64.426692 58 31147ft 387kts
11-Feb-18 09:10 45.342922 -64.290375 59 31127ft 387kts
11-Feb-18 09:11 45.387621 -64.152287 59 31104ft 386kts
11-Feb-18 09:12 45.432158 -64.013996 59 31090ft 385kts
11-Feb-18 09:13 45.476419 -63.875842 59 31097ft 385kts
11-Feb-18 09:14 45.520549 -63.737328 59 31096ft 386kts
11-Feb-18 09:15 45.564497 -63.598657 59 31099ft 387kts
11-Feb-18 09:16 45.608386 -63.459396 59 31153ft 386kts
11-Feb-18 09:17 45.651579 -63.321723 60 31187ft 387kts
11-Feb-18 09:18 45.694931 -63.182630 60 31188ft 385kts
11-Feb-18 09:19 45.738008 -63.043641 60 31192ft 385kts
11-Feb-18 09:20 45.781102 -62.903906 59 31194ft 384kts
11-Feb-18 09:21 45.823824 -62.764732 60 31196ft 383kts
11-Feb-18 09:22 45.866310 -62.625519 59 31200ft 383kts
11-Feb-18 09:23 45.908892 -62.485100 59 31203ft 384kts
11-Feb-18 09:24 45.950941 -62.345759 60 31192ft 385kts
11-Feb-18 09:25 45.992982 -62.205647 60 31129ft 384kts
11-Feb-18 09:26 46.034642 -62.066004 60 31109ft 383kts
11-Feb-18 09:27 46.076277 -61.925676 60 31112ft 383kts
11-Feb-18 09:28 46.117729 -61.785153 60 31111ft 383kts
11-Feb-18 09:29 46.159087 -61.644200 60 31114ft 383kts
11-Feb-18 09:30 46.200306 -61.502833 60 31117ft 384kts
11-Feb-18 09:31 46.241388 -61.361243 60 31120ft 385kts
11-Feb-18 09:32 46.281766 -61.221182 61 31103ft 383kts
11-Feb-18 09:33 46.322258 -61.079906 61 31106ft 381kts
11-Feb-18 09:34 46.362455 -60.938924 61 31112ft 380kts
11-Feb-18 09:35 46.402358 -60.798232 61 31145ft 378kts
11-Feb-18 09:36 46.441623 -60.658658 59 31160ft 380kts
11-Feb-18 09:37 46.481445 -60.516633 59 31165ft 382kts
11-Feb-18 09:38 46.521282 -60.373674 59 31167ft 383kts
11-Feb-18 09:39 46.560611 -60.231579 60 31149ft 382kts
11-Feb-18 09:40 46.599826 -60.089065 60 31153ft 381kts
11-Feb-18 09:41 46.638910 -59.946165 60 31155ft 381kts
11-Feb-18 09:42 46.677858 -59.802953 60 31160ft 382kts
11-Feb-18 09:43 46.716747 -59.659012 60 31162ft 382kts
11-Feb-18 09:44 46.755495 -59.514783 60 31166ft 384kts
11-Feb-18 09:45 46.794180 -59.369972 60 31167ft 385kts
11-Feb-18 09:46 46.832399 -59.225935 61 31150ft 383kts
11-Feb-18 09:47 46.845899 -59.069408 100 31155ft 394kts
11-Feb-18 09:48 46.816592 -58.918113 126 31443ft 379kts
11-Feb-18 09:49 46.755365 -58.806940 171 31111ft 344kts
11-Feb-18 09:50 46.676191 -58.755437 187 31646ft 310kts
11-Feb-18 09:51 46.631668 -58.804457 266 31130ft 203kts
11-Feb-18 09:52 46.681519 -58.834075 22 29296ft 419kts
11-Feb-18 09:53 46.663871 -58.773756 307 23853ft 365kts
11-Feb-18 09:54 46.676254 -58.748506 332 18096ft 399kts
11-Feb-18 09:55 46.692295 -58.726461 11 13034ft 427kts
11-Feb-18 09:56 46.705188 -58.694151 67 9159ft 406kts
11-Feb-18 09:57 46.697898 -58.662978 127 5648ft 381kts
11-Feb-18 09:58 46.643490 -58.686047 184 11514ft 191kts
11-Feb-18 09:59 46.587558 -58.661553 149 14525ft 260kts
11-Feb-18 10:00 46.605056 -58.565635 9 16192ft 312kts
11-Feb-18 10:01 46.679859 -58.492128 39 17700ft 344kts
11-Feb-18 10:02 46.742939 -58.385974 43 19249ft 347kts
11-Feb-18 10:03 46.802448 -58.280516 43 20707ft 347kts
11-Feb-18 10:04 46.863165 -58.172095 42 22184ft 346kts
11-Feb-18 10:05 46.923120 -58.064527 41 23662ft 344kts
11-Feb-18 10:06 46.984417 -57.954344 40 24199ft 370kts
11-Feb-18 10:07 47.050930 -57.834041 40 24214ft 387kts
11-Feb-18 10:08 47.117558 -57.713053 41 24176ft 394kts
11-Feb-18 10:09 47.185563 -57.588998 41 24135ft 396kts
11-Feb-18 10:10 47.253897 -57.463780 41 24146ft 396kts
11-Feb-18 10:11 47.321502 -57.339361 42 24129ft 397kts
11-Feb-18 10:12 47.388094 -57.216200 42 24122ft 396kts
11-Feb-18 10:13 47.456267 -57.089557 42 24125ft 395kts
11-Feb-18 10:14 47.523897 -56.963344 41 24127ft 396kts
11-Feb-18 10:15 47.591854 -56.835937 41 24129ft 397kts
11-Feb-18 10:16 47.659908 -56.707753 41 24132ft 397kts
11-Feb-18 10:17 47.727433 -56.579960 41 24134ft 398kts
11-Feb-18 10:18 47.795159 -56.451180 41 24137ft 398kts
11-Feb-18 10:19 47.861945 -56.323617 42 24124ft 399kts
11-Feb-18 10:20 47.928154 -56.196353 42 23737ft 384kts
11-Feb-18 10:21 47.993948 -56.069623 45 20040ft 401kts
11-Feb-18 10:22 48.058618 -55.944229 46 16603ft 368kts
11-Feb-18 10:23 48.116667 -55.831303 46 13210ft 341kts
11-Feb-18 10:24 48.171469 -55.724010 46 9755ft 313kts
11-Feb-18 10:25 48.219218 -55.630668 48 7384ft 257kts
11-Feb-18 10:26 48.261983 -55.546546 50 6393ft 253kts
11-Feb-18 10:27 48.303004 -55.465500 49 6090ft 233kts
11-Feb-18 10:28 48.341240 -55.389824 49 6091ft 224kts
11-Feb-18 10:29 48.377738 -55.317395 50 6090ft 221kts
11-Feb-18 10:30 48.414767 -55.243710 50 6090ft 221kts
11-Feb-18 10:31 48.451913 -55.169586 50 6090ft 221kts
11-Feb-18 10:32 48.488802 -55.095772 50 6090ft 221kts
11-Feb-18 10:33 48.525522 -55.021830 54 6087ft 221kts
11-Feb-18 10:34 48.551552 -54.938835 50 6091ft 220kts
11-Feb-18 10:35 48.589887 -54.866985 48 6022ft 220kts
11-Feb-18 10:36 48.623166 -54.805711 47 5001ft 167kts
11-Feb-18 10:37 48.649755 -54.756876 46 3982ft 137kts
11-Feb-18 10:38 48.673692 -54.712988 46 2681ft 147kts
11-Feb-18 10:39 48.698345 -54.667614 45 1978ft 117kts
11-Feb-18 10:40 48.729933 -54.623540 11 1996ft 170kts
11-Feb-18 10:41 48.774183 -54.609854 8 1988ft 153kts
11-Feb-18 10:42 48.810992 -54.599258 8 1676ft 121kts
11-Feb-18 10:43 48.842140 -54.590370 8 1200ft 123kts
11-Feb-18 10:43 48.874082 -54.581246 8 995ft 135kts
11-Feb-18 10:44 48.906252 -54.571941 7 956ft 108kts
11-Feb-18 10:46 48.933305 -54.566089 314 500ft 35kts
11-Feb-18 10:46 48.932600 -54.566426 70 500ft 25kts
11-Feb-18 10:47 48.932652 -54.565147 83 500ft 0kts
11-Feb-18 10:48 48.933910 -54.564139 12 500ft 58kts

Navigation Log

Ident Type
Flight plan parsing failed, navigation log unavailable